Flight Track Log - Related Links

Times and Time Zones

All times are in EDT time to prevent confusion due to time zone crossing. See the EJA361 flight status page for this flight to view local times or setup timezone preferences in your user account.

Time Position Orientation Groundspeed Altitude Reporting Facility
EDT Latitude Longitude Course Direction KTS MPH feet Rate Location/Type
Thu 10:42:55 AM 41.3106 -95.9039 334° Northwest 161 185 1,700  Level Minneapolis Center
Thu 10:43:47 AM 41.3581 -95.9353 334° Northwest 265 305 4,600 3,205 Climbing Minneapolis Center
Thu 10:44:08 AM 41.3814 -95.9317 North 278 320 5,600 1,355 Climbing Minneapolis Center
Thu 10:44:49 AM 41.3903 -95.8653 80° East 277 319 6,000 2,272 Climbing Minneapolis Center
Thu 10:45:51 AM 41.3542 -95.7675 116° Southeast 284 327 9,500 3,194 Climbing Minneapolis Center
Thu 10:46:53 AM 41.3161 -95.6667 117° Southeast 299 344 12,600 2,758 Climbing Minneapolis Center
Thu 10:47:55 AM 41.2642 -95.5425 119° Southeast 375 432 15,200 2,468 Climbing Minneapolis Center
Thu 10:48:57 AM 41.2092 -95.4100 119° Southeast 403 464 17,700 2,565 Climbing Minneapolis Center
Thu 10:49:59 AM 41.1403 -95.2436 119° Southeast 425 489 20,500 2,516 Climbing Minneapolis Center
Thu 10:51:01 AM 41.0811 -95.1022 119° Southeast 435 501 22,900 2,129 Climbing Minneapolis Center
Thu 10:52:03 AM 41.0211 -94.9567 119° Southeast 443 510 24,900 1,935 Climbing Minneapolis Center
Thu 10:53:05 AM 40.9561 -94.8050 120° Southeast 464 534 26,900 1,935 Climbing Minneapolis Center
Thu 10:54:07 AM 40.8911 -94.6517 119° Southeast 473 544 28,900 1,500 Climbing Minneapolis Center
Thu 10:55:09 AM 40.8219 -94.4883 119° Southeast 488 562 30,000 1,016 Climbing Minneapolis Center
Thu 10:56:11 AM 40.7522 -94.3242 119° Southeast 509 586 31,000 484 Climbing Minneapolis Center
Thu 10:57:13 AM 40.6789 -94.1567 120° Southeast 525 604 31,000  Level Minneapolis Center
Thu 10:58:15 AM 40.5933 -93.9619 120° Southeast 523 602 31,000  Level Minneapolis Center
Thu 10:59:17 AM 40.5369 -93.8006 115° Southeast 506 582 31,000  Level Minneapolis Center
Thu 11:00:20 AM 40.4850 -93.6339 112° Southeast 500 575 31,000  Level Minneapolis Center
Thu 11:01:22 AM 40.4319 -93.4700 113° Southeast 495 570 31,000  Level Minneapolis Center
Thu 11:02:19 AM 40.3747 -93.3036 114° Southeast 499 574 31,000  Level Kansas City Center
Thu 11:03:20 AM 40.3211 -93.1400 113° Southeast 497 572 31,000  Level Kansas City Center
Thu 11:04:23 AM 40.2556 -92.9489 114° Southeast 498 573 31,000  Level Kansas City Center
Thu 11:05:24 AM 40.2011 -92.7894 114° Southeast 500 575 31,000  Level Kansas City Center
Thu 11:06:25 AM 40.1358 -92.6025 114° Southeast 504 580 31,000 -339 Level Kansas City Center
Thu 11:07:28 AM 40.0722 -92.4475 118° Southeast 502 578 30,300 -850 Descending Kansas City Center
Thu 11:08:32 AM 40.0014 -92.2736 118° Southeast 500 575 29,200 -2,081 Descending Kansas City Center
Thu 11:09:32 AM 39.9375 -92.1236 119° Southeast 490 564 26,000 -2,331 Descending Kansas City Center
Thu 11:10:33 AM 39.8753 -91.9767 119° Southeast 479 551 24,500 -1,248 Descending Kansas City Center
Thu 11:11:37 AM 39.8150 -91.8358 119° Southeast 459 528 23,400 -1,056 Descending Kansas City Center
Thu 11:12:38 AM 39.7550 -91.6958 119° Southeast 450 518 22,300 -1,180 Descending Kansas City Center
Thu 11:13:39 AM 39.6856 -91.5353 119° Southeast 435 501 21,000 -1,152 Descending Kansas City Center
Thu 11:14:43 AM 39.6286 -91.4039 119° Southeast 425 489 19,900 -1,016 Descending Kansas City Center
Thu 11:15:43 AM 39.5711 -91.2703 119° Southeast 413 475 18,900 -1,024 Descending Kansas City Center
Thu 11:16:46 AM 39.5150 -91.1442 120° Southeast 407 468 17,800 -1,016 Descending Kansas City Center
Thu 11:17:47 AM 39.4589 -91.0183 120° Southeast 404 465 16,800 -1,008 Descending Kansas City Center
Thu 11:18:51 AM 39.3831 -90.9039 131° Southeast 421 484 15,700 -864 Descending Kansas City Center
Thu 11:19:52 AM 39.2828 -90.8197 147° Southeast 430 495 15,000 -1,016 Descending Kansas City Center
Thu 11:20:55 AM 39.1750 -90.7244 146° Southeast 399 459 13,600 -1,210 Descending Kansas City Center
Thu 11:21:56 AM 39.0897 -90.6508 146° Southeast 378 435 12,500 -1,113 Descending Kansas City Center
Thu 11:22:59 AM 39.0056 -90.5778 146° Southeast 369 425 11,300 -1,548 Descending Kansas City Center
Thu 11:24:00 AM 38.9264 -90.5097 146° Southeast 350 403 9,300 -1,597 Descending Kansas City Center
Thu 11:25:03 AM 38.8725 -90.4283 130° Southeast 312 359 8,000 -629 Descending Kansas City Center
Thu 11:26:04 AM 38.8275 -90.3339 121° Southeast 309 356 8,000 -435 Level Kansas City Center
Thu 11:27:07 AM 38.7906 -90.2522 120° Southeast 268 308 7,100 -1,113 Descending Kansas City Center
Thu 11:28:08 AM 38.7619 -90.1708 114° Southeast 255 293 5,700 -1,512 Descending Kansas City Center
Thu 11:29:10 AM 38.7289 -90.0761 114° Southeast 247 284 4,000 -1,056 Descending Kansas City Center
Thu 11:30:13 AM 38.6756 -90.0811 184° South 245 282 3,500 -242 Descending Kansas City Center
Thu 11:31:14 AM 38.6458 -90.1425 238° Southwest 220 253 3,500 -96 Level Kansas City Center
Thu 11:32:18 AM 38.6636 -90.1992 292° West 189 217 3,300 -532 Descending Kansas City Center
Thu 11:33:18 AM 38.6889 -90.2481 304° West 176 203 2,400 -823 Descending Kansas City Center
Thu 11:34:22 AM 38.7114 -90.2936 302° West 152 175 1,600 -768 Descending Kansas City Center
Thu 11:35:23 AM 38.7311 -90.3333 302° West 121 139 800 -537 Descending Kansas City Center
Thu 11:36:25 AM 38.7433 -90.3567 304° West 96 110 500 -290 Descending Kansas City Center

Login

Don't have an account? Register now (free) for customized features, flight alerts, and more!